createdAt,value
2018-09-25T00:00:37.880Z,1.80
2018-09-25T00:03:11.808Z,1.67
2018-09-25T00:05:45.729Z,1.93
2018-09-25T00:08:19.314Z,1.47
2018-09-25T00:10:52.946Z,1.70
2018-09-25T00:13:26.636Z,1.47
2018-09-25T00:16:00.495Z,1.57
2018-09-25T00:18:34.252Z,1.60
2018-09-25T00:21:08.010Z,2.10
2018-09-25T00:23:41.942Z,1.60
2018-09-25T00:26:15.731Z,1.70
2018-09-25T00:28:49.417Z,2.00
2018-09-25T00:31:23.052Z,1.77
2018-09-25T00:33:56.942Z,2.00
2018-09-25T00:36:30.633Z,1.50
2018-09-25T00:39:04.473Z,1.90
2018-09-25T00:41:38.347Z,1.80
2018-09-25T00:44:12.141Z,1.77
2018-09-25T00:46:45.882Z,1.57
2018-09-25T00:49:19.929Z,1.70
2018-09-25T00:51:53.711Z,1.50
2018-09-25T00:54:27.469Z,1.60
2018-09-25T00:57:01.249Z,1.87
2018-09-25T00:59:35.152Z,2.27
2018-09-25T01:02:08.983Z,1.80
2018-09-25T01:04:42.639Z,1.80
2018-09-25T01:07:16.735Z,1.90
2018-09-25T01:09:50.534Z,1.77
2018-09-25T01:12:24.194Z,1.87
2018-09-25T01:14:57.941Z,1.77
2018-09-25T01:17:31.510Z,1.70
2018-09-25T01:20:05.133Z,1.90
2018-09-25T01:22:38.927Z,2.47
2018-09-25T01:25:12.694Z,1.70
2018-09-25T01:27:46.291Z,2.00
2018-09-25T01:30:20.045Z,1.80
2018-09-25T01:32:53.682Z,1.80
2018-09-25T01:35:27.536Z,2.33
2018-09-25T01:38:01.288Z,2.00
2018-09-25T01:40:35.174Z,2.20
2018-09-25T01:43:09.078Z,2.10
2018-09-25T01:45:42.783Z,2.37
2018-09-25T01:48:16.481Z,2.50
2018-09-25T01:50:50.221Z,1.90
2018-09-25T01:53:23.580Z,2.20
2018-09-25T01:55:57.354Z,2.30
2018-09-25T01:58:31.014Z,2.40
2018-09-25T02:01:04.796Z,1.97
2018-09-25T02:03:38.592Z,2.10
2018-09-25T02:06:12.277Z,2.20
2018-09-25T02:08:46.337Z,2.13
2018-09-25T02:11:19.984Z,2.20
2018-09-25T02:13:53.594Z,2.47
2018-09-25T02:16:26.987Z,2.13
2018-09-25T02:19:00.705Z,1.87
2018-09-25T02:21:34.494Z,1.90
2018-09-25T02:24:08.106Z,2.50
2018-09-25T02:26:41.789Z,2.00
2018-09-25T02:29:15.459Z,1.70
2018-09-25T02:31:49.166Z,1.97
2018-09-25T02:34:22.929Z,2.23
2018-09-25T02:36:56.455Z,1.63
2018-09-25T02:39:30.114Z,1.90
2018-09-25T02:42:03.924Z,1.73
2018-09-25T02:44:37.608Z,1.90
2018-09-25T02:47:11.231Z,2.00
2018-09-25T02:49:44.913Z,1.30
2018-09-25T02:52:19.465Z,1.87
2018-09-25T02:54:52.957Z,2.13
2018-09-25T02:57:26.538Z,1.57
2018-09-25T03:00:00.080Z,1.90
2018-09-25T03:02:33.486Z,2.50
2018-09-25T03:05:07.149Z,1.90
2018-09-25T03:07:40.986Z,2.00
2018-09-25T03:10:14.535Z,1.93
2018-09-25T03:12:48.242Z,2.00
2018-09-25T03:15:22.065Z,2.20
2018-09-25T03:17:55.917Z,2.30
2018-09-25T03:20:29.592Z,1.70
2018-09-25T03:23:03.545Z,1.43
2018-09-25T03:25:37.383Z,2.20
2018-09-25T03:28:10.865Z,1.87
2018-09-25T03:30:44.579Z,1.63
2018-09-25T03:33:18.212Z,1.90
2018-09-25T03:35:52.078Z,1.80
2018-09-25T03:38:25.497Z,1.97
2018-09-25T03:41:00.121Z,2.40
2018-09-25T03:43:33.817Z,2.00
2018-09-25T03:46:07.199Z,2.37
2018-09-25T03:48:40.971Z,2.47
2018-09-25T03:51:14.659Z,2.20
2018-09-25T03:53:48.202Z,2.50
2018-09-25T03:56:22.080Z,2.63
2018-09-25T03:58:55.712Z,2.33
2018-09-25T04:01:30.438Z,2.07
2018-09-25T04:04:04.223Z,2.10
2018-09-25T04:06:37.914Z,2.30
2018-09-25T04:09:12.202Z,2.10
2018-09-25T04:11:45.972Z,1.90
2018-09-25T04:14:19.610Z,2.20
2018-09-25T04:16:53.314Z,2.43
2018-09-25T04:19:27.365Z,2.13
2018-09-25T04:22:01.035Z,1.87
2018-09-25T04:24:34.781Z,2.10
2018-09-25T04:27:08.553Z,2.00
2018-09-25T04:29:42.150Z,1.70
2018-09-25T04:32:15.905Z,2.20
2018-09-25T04:34:49.609Z,2.17
2018-09-25T04:37:23.287Z,1.70
2018-09-25T04:39:56.701Z,1.77
2018-09-25T04:42:30.437Z,2.87
2018-09-25T04:45:03.841Z,2.33
2018-09-25T04:47:37.538Z,2.17
2018-09-25T04:50:11.109Z,1.80
2018-09-25T04:52:44.894Z,1.83
2018-09-25T04:55:18.624Z,1.87
2018-09-25T04:57:52.229Z,1.77
2018-09-25T05:00:25.993Z,2.30
2018-09-25T05:02:59.514Z,2.20
2018-09-25T05:05:33.046Z,2.43
2018-09-25T05:08:07.232Z,2.30
2018-09-25T05:10:40.994Z,2.23
2018-09-25T05:13:14.666Z,2.80
2018-09-25T05:15:48.386Z,2.17
2018-09-25T05:18:22.591Z,2.30
2018-09-25T05:20:56.263Z,2.80
2018-09-25T05:23:30.042Z,2.67
2018-09-25T05:26:03.669Z,2.63
2018-09-25T05:28:37.497Z,2.97
2018-09-25T05:31:12.426Z,2.33
2018-09-25T05:34:02.548Z,2.97
2018-09-25T05:36:37.366Z,3.03
2018-09-25T05:39:14.689Z,3.10
2018-09-25T05:41:48.902Z,2.40
2018-09-25T05:44:22.634Z,2.50
2018-09-25T05:46:56.289Z,2.93
2018-09-25T05:49:30.015Z,2.63
2018-09-25T05:52:03.551Z,3.00
2018-09-25T05:54:37.076Z,2.70
2018-09-25T05:57:10.597Z,3.03
2018-09-25T05:59:44.056Z,2.67
2018-09-25T06:02:17.770Z,2.87
2018-09-25T06:04:52.411Z,3.10
2018-09-25T06:07:26.044Z,3.03
2018-09-25T06:09:59.695Z,3.50
2018-09-25T06:12:33.618Z,3.63
2018-09-25T06:15:07.287Z,3.60
2018-09-25T06:17:41.132Z,3.27
2018-09-25T06:20:14.838Z,3.53
2018-09-25T06:22:48.676Z,3.47
2018-09-25T06:25:23.355Z,3.80
2018-09-25T06:27:57.278Z,3.90
2018-09-25T06:30:30.838Z,4.00
2018-09-25T06:33:04.481Z,3.00
2018-09-25T06:35:37.953Z,3.03
2018-09-25T06:38:11.583Z,3.37
2018-09-25T06:40:45.265Z,2.63
2018-09-25T06:43:19.045Z,2.50
2018-09-25T06:45:52.689Z,2.00
2018-09-25T06:48:26.377Z,2.70
2018-09-25T06:51:00.050Z,2.13
2018-09-25T06:53:33.762Z,1.70
2018-09-25T06:56:07.408Z,1.40
2018-09-25T06:58:40.994Z,1.80
2018-09-25T07:01:15.025Z,1.53
2018-09-25T07:03:48.628Z,1.33
2018-09-25T07:06:22.795Z,1.20
2018-09-25T07:08:56.396Z,1.50
2018-09-25T07:11:30.194Z,1.47
2018-09-25T07:14:03.759Z,1.50
2018-09-25T07:16:37.446Z,1.90
2018-09-25T07:19:11.144Z,2.17
2018-09-25T07:21:44.813Z,2.03
2018-09-25T07:24:18.506Z,1.90
2018-09-25T07:26:52.177Z,2.03
2018-09-25T07:29:25.777Z,2.60
2018-09-25T07:31:59.705Z,2.47
2018-09-25T07:34:33.741Z,1.93
2018-09-25T07:37:07.908Z,3.00
2018-09-25T07:39:41.635Z,2.27
2018-09-25T07:42:15.305Z,2.50
2018-09-25T07:44:48.973Z,2.40
2018-09-25T07:47:22.649Z,2.30
2018-09-25T07:49:56.310Z,2.30
2018-09-25T07:52:29.903Z,2.17
2018-09-25T07:55:03.622Z,2.47
2018-09-25T07:57:37.294Z,2.30
2018-09-25T08:00:11.119Z,2.30
2018-09-25T08:02:44.693Z,2.23
2018-09-25T08:05:18.433Z,2.17
2018-09-25T08:07:52.698Z,1.90
2018-09-25T08:10:26.335Z,1.90
2018-09-25T08:12:59.844Z,2.50
2018-09-25T08:15:34.075Z,2.20
2018-09-25T08:18:07.670Z,2.52
2018-09-25T08:20:41.544Z,1.85
2018-09-25T08:23:15.258Z,2.00
2018-09-25T08:25:49.062Z,2.35
2018-09-25T08:28:22.802Z,1.98
2018-09-25T08:31:04.384Z,1.55
2018-09-25T08:33:38.081Z,1.95
2018-09-25T08:36:11.801Z,2.00
2018-09-25T08:38:45.532Z,1.90
2018-09-25T08:41:19.137Z,2.30
2018-09-25T08:43:52.948Z,1.65
2018-09-25T08:46:26.753Z,1.77
2018-09-25T08:49:00.414Z,1.92
2018-09-25T08:51:34.138Z,1.80
2018-09-25T08:54:07.896Z,2.10
2018-09-25T08:56:41.472Z,1.80
2018-09-25T08:59:14.846Z,1.75
2018-09-25T09:01:48.461Z,1.50
2018-09-25T09:04:23.007Z,1.30
2018-09-25T09:06:56.788Z,1.55
2018-09-25T09:09:30.530Z,1.30
2018-09-25T09:12:04.174Z,1.80
2018-09-25T09:14:37.937Z,1.22
2018-09-25T09:17:11.666Z,1.40
2018-09-25T09:19:45.252Z,1.05
2018-09-25T09:22:18.880Z,1.35
2018-09-25T09:24:52.611Z,1.22
2018-09-25T09:27:26.635Z,1.35
2018-09-25T09:30:01.101Z,1.45
2018-09-25T09:32:34.799Z,1.30
2018-09-25T09:35:08.521Z,1.12
2018-09-25T09:37:42.457Z,1.30
2018-09-25T09:40:16.254Z,1.32
2018-09-25T09:42:50.029Z,1.22
2018-09-25T09:45:23.746Z,1.12
2018-09-25T09:47:57.402Z,1.20
2018-09-25T09:50:30.976Z,1.50
2018-09-25T09:53:04.543Z,0.93
2018-09-25T09:55:38.678Z,1.10
2018-09-25T09:58:12.189Z,1.17
2018-09-25T10:00:45.726Z,1.37
2018-09-25T10:03:19.378Z,1.13
2018-09-25T10:05:53.041Z,1.30
2018-09-25T10:08:26.768Z,1.22
2018-09-25T10:11:00.347Z,1.32
2018-09-25T10:13:34.057Z,0.90
2018-09-25T10:16:07.909Z,0.95
2018-09-25T10:18:41.385Z,1.40
2018-09-25T10:21:16.159Z,1.37
2018-09-25T10:23:49.845Z,1.45
2018-09-25T10:26:24.030Z,1.25
2018-09-25T10:28:57.630Z,1.10
2018-09-25T10:31:31.057Z,1.20
2018-09-25T10:34:04.813Z,1.20
2018-09-25T10:36:38.453Z,0.98
2018-09-25T10:39:13.948Z,1.52
2018-09-25T10:41:47.623Z,1.25
2018-09-25T10:44:21.821Z,1.10
2018-09-25T10:46:55.466Z,1.40
2018-09-25T10:49:29.641Z,1.40
2018-09-25T10:52:03.420Z,1.10
2018-09-25T10:54:37.331Z,1.20
2018-09-25T10:57:11.085Z,1.20
2018-09-25T10:59:45.591Z,1.10
2018-09-25T11:02:19.613Z,0.98
2018-09-25T11:04:53.145Z,1.20
2018-09-25T11:07:26.913Z,1.30
2018-09-25T11:10:01.207Z,1.17
2018-09-25T11:12:35.087Z,1.10
2018-09-25T11:15:08.713Z,0.88
2018-09-25T11:17:42.338Z,1.42
2018-09-25T11:20:15.980Z,1.17
2018-09-25T11:22:49.612Z,1.20
2018-09-25T11:25:23.277Z,1.47
2018-09-25T11:27:57.217Z,1.40
2018-09-25T11:30:30.978Z,1.20
2018-09-25T11:33:04.654Z,1.20
2018-09-25T11:35:38.682Z,1.47
2018-09-25T11:38:12.236Z,1.70
2018-09-25T11:40:46.110Z,1.45
2018-09-25T11:43:19.811Z,1.22
2018-09-25T11:45:53.484Z,1.30
2018-09-25T11:48:27.220Z,1.40
2018-09-25T11:51:00.944Z,1.20
2018-09-25T11:53:34.750Z,1.35
2018-09-25T11:56:08.537Z,0.95
2018-09-25T11:58:42.233Z,1.55
2018-09-25T12:01:15.962Z,1.12
2018-09-25T12:03:49.829Z,1.10
2018-09-25T12:06:23.754Z,1.27
2018-09-25T12:08:57.871Z,1.20
2018-09-25T12:11:31.434Z,1.40
2018-09-25T12:14:05.127Z,1.45
2018-09-25T12:16:38.821Z,1.75
2018-09-25T12:19:12.375Z,1.37
2018-09-25T12:21:46.105Z,1.05
2018-09-25T12:24:19.898Z,1.02
2018-09-25T12:26:53.485Z,1.72
2018-09-25T12:29:27.106Z,1.32
2018-09-25T12:32:00.981Z,1.20
2018-09-25T12:34:34.517Z,1.40
2018-09-25T12:37:08.262Z,1.62
2018-09-25T12:39:41.872Z,1.10
2018-09-25T12:42:15.598Z,1.22
2018-09-25T12:44:49.462Z,0.85
2018-09-25T12:47:23.241Z,0.90
2018-09-25T12:49:56.996Z,1.40
2018-09-25T12:52:30.552Z,1.10
2018-09-25T12:55:04.271Z,1.20
2018-09-25T12:57:37.677Z,1.35
2018-09-25T13:00:11.894Z,0.98
2018-09-25T13:02:45.599Z,1.37
2018-09-25T13:05:19.294Z,1.10
2018-09-25T13:07:53.031Z,1.20
2018-09-25T13:10:26.788Z,1.17
2018-09-25T13:13:00.418Z,1.97
2018-09-25T13:15:34.134Z,1.40
2018-09-25T13:18:09.384Z,1.10
2018-09-25T13:20:43.037Z,2.13
2018-09-25T13:23:16.806Z,1.20
2018-09-25T13:25:50.247Z,0.90
2018-09-25T13:28:24.002Z,1.17
2018-09-25T13:30:57.673Z,1.10
2018-09-25T13:33:31.340Z,1.30
2018-09-25T13:36:05.083Z,1.13
2018-09-25T13:38:38.616Z,1.10
2018-09-25T13:41:12.289Z,1.00
2018-09-25T13:43:46.019Z,1.33
2018-09-25T13:46:21.112Z,1.10
2018-09-25T13:48:54.909Z,0.87
2018-09-25T13:51:28.642Z,1.20
2018-09-25T13:54:02.679Z,1.10
2018-09-25T13:56:36.187Z,1.00
2018-09-25T13:59:10.093Z,2.43
2018-09-25T14:01:45.124Z,1.30
2018-09-25T14:04:18.681Z,1.47
2018-09-25T14:06:53.166Z,0.90
2018-09-25T14:09:26.866Z,1.20
2018-09-25T14:12:00.506Z,1.40
2018-09-25T14:14:34.233Z,0.97
2018-09-25T14:17:08.258Z,1.20
2018-09-25T14:19:41.857Z,1.30
2018-09-25T14:22:15.549Z,0.90
2018-09-25T14:24:49.570Z,1.00
2018-09-25T14:27:23.074Z,1.30
2018-09-25T14:29:56.469Z,1.07
2018-09-25T14:32:31.169Z,1.13
2018-09-25T14:35:04.934Z,1.10
2018-09-25T14:37:38.531Z,1.20
2018-09-25T14:40:12.121Z,0.70
2018-09-25T14:42:45.759Z,1.00
2018-09-25T14:45:19.475Z,2.00
2018-09-25T14:47:53.171Z,1.17
2018-09-25T14:50:26.847Z,1.10
2018-09-25T14:53:00.530Z,1.00
2018-09-25T14:55:34.177Z,0.90
2018-09-25T14:58:08.101Z,0.90
2018-09-25T15:00:41.843Z,1.10
2018-09-25T15:03:16.559Z,0.87
2018-09-25T15:05:50.169Z,0.70
2018-09-25T15:08:24.077Z,0.90
2018-09-25T15:10:57.729Z,1.10
2018-09-25T15:13:31.280Z,0.90
2018-09-25T15:16:04.892Z,0.70
2018-09-25T15:18:38.577Z,0.97
2018-09-25T15:21:12.432Z,1.10
2018-09-25T15:23:45.875Z,0.80
2018-09-25T15:26:19.534Z,0.93
2018-09-25T15:28:53.394Z,0.90
2018-09-25T15:31:27.050Z,0.93
2018-09-25T15:34:01.116Z,1.00
2018-09-25T15:36:34.694Z,1.00
2018-09-25T15:39:08.221Z,0.90
2018-09-25T15:41:42.150Z,0.90
2018-09-25T15:44:15.841Z,1.10
2018-09-25T15:46:49.358Z,1.37
2018-09-25T15:49:24.001Z,1.10
2018-09-25T15:51:57.401Z,1.20
2018-09-25T15:54:31.153Z,0.93
2018-09-25T15:57:05.017Z,1.00
2018-09-25T15:59:38.703Z,2.13
2018-09-25T16:02:12.654Z,0.87
2018-09-25T16:04:47.795Z,1.10
2018-09-25T16:07:21.749Z,1.33
2018-09-25T16:09:55.429Z,1.30
2018-09-25T16:12:29.314Z,1.00
2018-09-25T16:15:03.027Z,1.40
2018-09-25T16:17:36.907Z,1.00
2018-09-25T16:20:10.653Z,1.43
2018-09-25T16:22:45.385Z,1.20
2018-09-25T16:25:19.055Z,0.93
2018-09-25T16:27:52.835Z,1.00
2018-09-25T16:30:26.556Z,0.83
2018-09-25T16:33:00.330Z,1.30
2018-09-25T16:35:34.069Z,1.03
2018-09-25T16:38:09.338Z,1.10
2018-09-25T16:40:43.148Z,1.27
2018-09-25T16:43:16.753Z,1.20
2018-09-25T16:45:50.371Z,1.30
2018-09-25T16:48:23.840Z,1.20
2018-09-25T16:50:57.451Z,1.10
2018-09-25T16:53:31.111Z,0.97
2018-09-25T16:56:04.893Z,1.00
2018-09-25T16:58:38.594Z,1.20
2018-09-25T17:01:12.557Z,1.10
2018-09-25T17:03:46.268Z,1.00
2018-09-25T17:06:19.910Z,0.90
2018-09-25T17:08:53.514Z,1.00
2018-09-25T17:11:27.056Z,1.00
2018-09-25T17:14:00.823Z,1.30
2018-09-25T17:16:34.392Z,1.10
2018-09-25T17:19:08.096Z,1.50
2018-09-25T17:21:41.739Z,1.43
2018-09-25T17:24:15.667Z,1.30
2018-09-25T17:26:49.418Z,1.60
2018-09-25T17:29:23.545Z,2.00
2018-09-25T17:31:57.206Z,1.90
2018-09-25T17:34:30.896Z,1.57
2018-09-25T17:37:04.515Z,1.50
2018-09-25T17:39:38.138Z,2.17
2018-09-25T17:42:11.886Z,3.67
2018-09-25T17:44:45.626Z,3.00
2018-09-25T17:47:19.353Z,1.50
2018-09-25T17:49:53.108Z,1.33
2018-09-25T17:52:26.918Z,1.30
2018-09-25T17:55:00.655Z,1.37
2018-09-25T17:57:34.346Z,1.10
2018-09-25T18:00:08.017Z,1.50
2018-09-25T18:02:41.653Z,1.30
2018-09-25T18:05:15.583Z,1.53
2018-09-25T18:07:49.154Z,1.30
2018-09-25T18:10:22.865Z,1.33
2018-09-25T18:12:56.587Z,1.27
2018-09-25T18:15:30.753Z,1.63
2018-09-25T18:18:04.392Z,1.50
2018-09-25T18:20:38.334Z,2.40
2018-09-25T18:23:12.033Z,2.30
2018-09-25T18:25:45.741Z,2.10
2018-09-25T18:28:19.519Z,2.10
2018-09-25T18:30:53.477Z,2.50
2018-09-25T18:33:27.169Z,1.70
2018-09-25T18:36:00.904Z,2.53
2018-09-25T18:38:34.661Z,2.63
2018-09-25T18:41:08.625Z,1.93
2018-09-25T18:43:42.211Z,1.97
2018-09-25T18:46:15.853Z,2.70
2018-09-25T18:48:49.370Z,3.73
2018-09-25T18:51:23.893Z,2.63
2018-09-25T18:53:57.526Z,2.30
2018-09-25T18:56:31.078Z,2.40
2018-09-25T18:59:04.762Z,2.23
2018-09-25T19:01:38.446Z,2.30
2018-09-25T19:04:12.141Z,2.30
2018-09-25T19:06:45.718Z,2.90
2018-09-25T19:09:19.425Z,2.40
2018-09-25T19:11:53.149Z,2.87
2018-09-25T19:14:26.529Z,3.67
2018-09-25T19:17:00.374Z,2.57
2018-09-25T19:19:34.006Z,3.87
2018-09-25T19:22:07.803Z,4.23
2018-09-25T19:24:41.449Z,3.63
2018-09-25T19:27:15.182Z,5.40
2018-09-25T19:29:48.826Z,5.57
2018-09-25T19:32:23.641Z,4.30
2018-09-25T19:34:57.373Z,4.40
2018-09-25T19:37:31.104Z,5.70
2018-09-25T19:40:04.777Z,4.63
2018-09-25T19:42:39.254Z,4.30
2018-09-25T19:45:12.916Z,3.50
2018-09-25T19:47:46.651Z,3.30
2018-09-25T19:50:20.618Z,3.13
2018-09-25T19:52:54.235Z,2.90
2018-09-25T19:55:28.010Z,2.77
2018-09-25T19:58:01.861Z,2.77
2018-09-25T20:00:35.417Z,2.50
2018-09-25T20:03:09.101Z,2.73
2018-09-25T20:05:42.828Z,2.37
2018-09-25T20:08:16.477Z,2.87
2018-09-25T20:10:49.911Z,3.00
2018-09-25T20:13:23.760Z,2.60
2018-09-25T20:15:57.542Z,2.63
2018-09-25T20:18:31.641Z,3.50
2018-09-25T20:21:05.425Z,3.33
2018-09-25T20:23:39.121Z,3.67
2018-09-25T20:26:12.937Z,4.20
2018-09-25T20:28:46.619Z,4.20
2018-09-25T20:31:20.320Z,5.50
2018-09-25T20:33:54.044Z,4.87
2018-09-25T20:36:27.494Z,5.03
2018-09-25T20:39:01.215Z,3.93
2018-09-25T20:41:34.941Z,4.07
2018-09-25T20:44:08.474Z,4.50
2018-09-25T20:46:42.253Z,5.47
2018-09-25T20:49:16.246Z,5.20
2018-09-25T20:51:49.960Z,5.10
2018-09-25T20:54:23.711Z,5.70
2018-09-25T20:56:57.113Z,6.80
2018-09-25T20:59:31.863Z,7.83
2018-09-25T21:02:05.515Z,8.80
2018-09-25T21:04:38.985Z,6.53
2018-09-25T21:07:12.624Z,8.07
2018-09-25T21:09:46.088Z,6.77
2018-09-25T21:12:19.765Z,5.70
2018-09-25T21:14:53.443Z,6.43
2018-09-25T21:17:27.126Z,6.57
2018-09-25T21:20:00.774Z,5.50
2018-09-25T21:22:34.233Z,5.10
2018-09-25T21:25:08.884Z,4.80
2018-09-25T21:27:42.306Z,4.83
2018-09-25T21:30:16.117Z,5.67
2018-09-25T21:32:49.949Z,4.70
2018-09-25T21:35:23.510Z,5.07
2018-09-25T21:37:57.121Z,5.00
2018-09-25T21:40:30.756Z,4.53
2018-09-25T21:43:04.469Z,4.10
2018-09-25T21:45:38.163Z,3.90
2018-09-25T21:48:11.640Z,4.20
2018-09-25T21:50:46.466Z,4.77
2018-09-25T21:53:20.132Z,4.20
2018-09-25T21:55:53.909Z,4.73
2018-09-25T21:58:27.677Z,4.73
2018-09-25T22:01:01.357Z,4.83
2018-09-25T22:03:35.038Z,4.73
2018-09-25T22:06:08.803Z,5.07
2018-09-25T22:08:42.533Z,5.10
2018-09-25T22:11:16.377Z,4.57
2018-09-25T22:13:50.019Z,4.43
2018-09-25T22:16:23.572Z,4.30
2018-09-25T22:18:57.362Z,4.07
2018-09-25T22:21:30.959Z,3.97
2018-09-25T22:24:04.641Z,4.60
2018-09-25T22:26:38.177Z,4.17
2018-09-25T22:29:11.795Z,4.40
2018-09-25T22:31:46.197Z,4.00
2018-09-25T22:34:20.138Z,4.03
2018-09-25T22:36:53.870Z,4.20
2018-09-25T22:39:27.473Z,3.83
2018-09-25T22:42:01.240Z,4.13
2018-09-25T22:44:34.640Z,4.40
2018-09-25T22:47:08.234Z,3.57
2018-09-25T22:49:41.861Z,3.30
2018-09-25T22:52:15.889Z,4.27
2018-09-25T22:54:49.605Z,3.83
2018-09-25T22:57:23.413Z,4.40
2018-09-25T22:59:57.126Z,3.50
2018-09-25T23:02:30.890Z,3.80
2018-09-25T23:05:04.407Z,4.33
2018-09-25T23:07:39.071Z,4.27
2018-09-25T23:10:12.802Z,5.00
2018-09-25T23:12:46.650Z,3.83
2018-09-25T23:15:20.517Z,4.53
2018-09-25T23:17:54.093Z,4.23
2018-09-25T23:20:27.617Z,4.33
2018-09-25T23:23:01.101Z,4.17
2018-09-25T23:25:34.835Z,3.90
2018-09-25T23:28:08.348Z,3.87
2018-09-25T23:30:42.206Z,3.97
2018-09-25T23:33:15.786Z,4.17
2018-09-25T23:35:49.691Z,4.03
2018-09-25T23:38:23.385Z,3.73
2018-09-25T23:41:54.885Z,4.10
2018-09-25T23:44:32.408Z,4.40
2018-09-25T23:47:11.764Z,3.60
2018-09-25T23:49:46.644Z,4.17
2018-09-25T23:52:28.220Z,4.57
2018-09-25T23:55:00.860Z,4.33
2018-09-25T23:57:33.687Z,4.03
